Time;durP1;ratioP1;P1;durP2;ratioP2;P2;SDS_P1;SDS_P2;PMS_P1;PMS_P2;Temp;Humidity;BMP_temperature;BMP_pressure;BME280_temperature;BME280_humidity;BME280_pressure;Samples;Min_cycle;Max_cycle;Signal;HPM_P1;HPM_P2
2022/05/10 00:01:30;;;;;;;;;21.00;20.00;;;;;21.88;41.51;101536.13;5119710;27;45492;-63
2022/05/10 00:03:57;;;;;;;;;27.50;22.50;;;;;21.94;41.44;101549.66;5115866;27;45507;-64
2022/05/10 00:06:24;;;;;;;;;22.25;22.25;;;;;21.86;41.66;101540.66;5119604;27;45463;-64
2022/05/10 00:08:49;;;;;;;;;29.00;24.50;;;;;21.53;41.79;101478.38;5115891;27;45344;-63
2022/05/10 00:11:15;;;;;;;;;20.75;20.00;;;;;21.70;41.98;101513.59;5108983;27;45317;-62
2022/05/10 00:13:41;;;;;;;;;24.50;20.50;;;;;21.87;42.22;101547.91;5099544;27;45586;-64
2022/05/10 00:16:14;;;;;;;;;20.25;17.25;;;;;21.86;42.17;101544.31;5098977;27;46746;-68
2022/05/10 00:18:39;;;;;;;;;24.25;22.75;;;;;21.86;42.11;101544.31;5124929;27;45320;-63
2022/05/10 00:21:05;;;;;;;;;23.50;21.50;;;;;21.69;42.28;101511.75;5090071;27;45414;-63
2022/05/10 00:23:30;;;;;;;;;22.75;22.75;;;;;21.77;42.25;101525.31;5098740;27;46283;-62
2022/05/10 00:25:56;;;;;;;;;32.75;22.25;;;;;21.59;42.73;101503.69;5094127;27;48736;-65
2022/05/10 00:28:21;;;;;;;;;23.75;23.00;;;;;21.65;43.09;101523.59;5101617;27;45286;-63
2022/05/10 00:30:46;;;;;;;;;22.00;20.25;;;;;21.68;42.76;101533.56;5107378;27;45381;-63
2022/05/10 00:33:18;;;;;;;;;25.50;22.00;;;;;21.69;43.02;101532.63;5083722;27;45529;-64
2022/05/10 00:35:43;;;;;;;;;26.75;22.00;;;;;21.69;43.17;101532.63;5115808;27;45601;-63
2022/05/10 00:38:09;;;;;;;;;26.75;24.75;;;;;21.60;43.23;101527.28;5115597;27;45650;-64
2022/05/10 00:40:37;;;;;;;;;26.75;24.75;;;;;21.41;43.34;101494.72;5116050;27;45708;-68
2022/05/10 00:43:11;;;;;;;;;26.00;25.00;;;;;21.55;43.60;101521.88;5115571;27;45705;-62
2022/05/10 00:45:46;;;;;;;;;32.50;28.50;;;;;21.40;43.78;101502.88;5114982;27;45311;-65
2022/05/10 00:48:25;;;;;;;;;22.00;21.75;;;;;21.49;43.57;101519.19;5115571;27;45239;-62
2022/05/10 00:51:02;;;;;;;;;31.75;26.00;;;;;21.48;43.75;101512.84;5115650;27;45836;-62
2022/05/10 00:53:59;;;;;;;;;24.75;23.75;;;;;21.47;44.28;101513.75;5108786;27;45551;-62
2022/05/10 00:56:52;;;;;;;;;30.50;27.25;;;;;21.38;44.33;101499.28;5115322;27;45564;-66
2022/05/10 00:59:26;;;;;;;;;23.00;20.25;;;;;21.38;44.36;101504.72;5101027;27;45429;-64
2022/05/10 01:01:58;;;;;;;;;22.25;19.50;;;;;21.26;44.36;101478.50;5115261;27;45554;-64
2022/05/10 01:04:32;;;;;;;;;28.50;24.75;;;;;21.39;44.62;101506.53;5114772;27;46207;-64
2022/05/10 01:07:07;;;;;;;;;22.25;19.25;;;;;21.37;44.47;101492.94;5109769;27;45501;-64
2022/05/10 01:09:38;;;;;;;;;29.00;23.00;;;;;21.36;44.60;101493.84;5095781;27;45611;-63
2022/05/10 01:12:14;;;;;;;;;23.00;21.50;;;;;21.31;44.94;101487.53;5095622;27;45321;-64
2022/05/10 01:14:54;;;;;;;;;22.50;22.50;;;;;21.16;44.99;101478.56;5119072;27;46682;-63
2022/05/10 01:17:19;;;;;;;;;25.25;23.25;;;;;21.23;45.11;101479.41;5103382;27;45405;-63
2022/05/10 01:19:45;;;;;;;;;29.75;24.25;;;;;21.31;45.25;101492.97;5123688;27;45697;-65
2022/05/10 01:22:33;;;;;;;;;33.00;26.00;;;;;21.29;45.26;101487.53;5099803;27;45432;-63
2022/05/10 01:25:04;;;;;;;;;21.50;19.50;;;;;21.27;45.47;101481.22;5110661;27;45488;-63
2022/05/10 01:27:45;;;;;;;;;24.50;20.75;;;;;21.25;45.79;101485.78;5118107;27;45463;-62
2022/05/10 01:30:19;;;;;;;;;23.50;22.50;;;;;21.23;46.00;101484.84;5113077;27;45363;-63
2022/05/10 01:35:50;;;;;;;;;22.00;20.25;;;;;21.17;45.96;101482.19;5118076;27;45786;-62
2022/05/10 01:38:29;;;;;;;;;25.25;22.25;;;;;21.05;46.22;101469.59;5118174;27;45365;-64
2022/05/10 01:41:02;;;;;;;;;22.25;20.00;;;;;21.06;46.67;101474.09;5118348;27;45472;-62
2022/05/10 01:43:42;;;;;;;;;26.25;21.25;;;;;21.02;46.57;101472.31;5121444;27;45417;-63
2022/05/10 01:46:18;;;;;;;;;23.75;22.50;;;;;21.00;46.39;101468.69;5118413;27;45581;-63
2022/05/10 01:48:49;;;;;;;;;27.50;22.50;;;;;20.94;46.72;101463.31;5101029;27;45352;-64
2022/05/10 01:51:33;;;;;;;;;27.75;22.00;;;;;20.97;46.59;101463.28;5118076;27;45573;-64
2022/05/10 01:53:59;;;;;;;;;24.75;21.25;;;;;20.93;46.81;101458.78;5119376;27;45608;-66
2022/05/10 01:56:27;;;;;;;;;27.50;23.00;;;;;20.95;46.59;101479.59;5115704;27;45530;-70
2022/05/10 01:58:53;;;;;;;;;20.25;20.25;;;;;20.90;47.03;101456.06;5120469;27;45430;-62
2022/05/10 02:01:39;;;;;;;;;28.50;25.25;;;;;20.89;47.06;101463.31;5111464;27;45326;-63
2022/05/10 02:04:25;;;;;;;;;23.75;23.25;;;;;20.78;47.16;101444.34;5118716;27;45472;-62
2022/05/10 02:06:57;;;;;;;;;34.25;22.25;;;;;20.71;47.26;101439.88;5117557;27;45432;-63
2022/05/10 02:09:34;;;;;;;;;21.25;20.00;;;;;20.61;47.30;101427.22;5117508;27;45310;-63
2022/05/10 02:12:11;;;;;;;;;22.25;20.25;;;;;20.78;47.29;101457.03;5127162;27;45268;-63
2022/05/10 02:15:00;;;;;;;;;23.75;23.50;;;;;20.71;47.59;101450.72;5131971;27;45363;-62
2022/05/10 02:17:39;;;;;;;;;25.50;21.25;;;;;20.74;47.62;101452.50;5102840;27;45733;-62
2022/05/10 02:20:25;;;;;;;;;24.25;20.00;;;;;20.71;47.78;101455.25;5098739;27;45455;-63
2022/05/10 02:22:59;;;;;;;;;27.00;24.75;;;;;20.63;48.11;101449.84;5079417;27;45572;-63
2022/05/10 02:25:33;;;;;;;;;23.75;20.75;;;;;20.57;48.38;101436.25;5098144;27;45465;-63
2022/05/10 02:28:08;;;;;;;;;26.00;24.75;;;;;20.57;48.16;101444.41;5108868;27;45328;-63
2022/05/10 02:30:35;;;;;;;;;25.00;23.00;;;;;20.61;48.41;101446.22;5122984;27;45613;-65
2022/05/10 02:33:09;;;;;;;;;32.25;27.00;;;;;20.61;48.17;101452.53;5117823;27;45301;-63
2022/05/10 02:35:48;;;;;;;;;24.75;24.75;;;;;20.61;48.29;101451.66;5118390;27;45405;-63
2022/05/10 02:38:17;;;;;;;;;30.00;27.00;;;;;20.59;48.66;101448.00;5117258;27;45483;-62
2022/05/10 02:40:45;;;;;;;;;21.00;16.00;;;;;20.49;48.41;101429.97;5114286;27;45440;-62
2022/05/10 02:43:18;;;;;;;;;25.75;22.00;;;;;20.58;48.58;101447.13;5114989;27;45488;-69
2022/05/10 02:45:43;;;;;;;;;24.75;23.50;;;;;20.37;48.44;101407.38;5117878;27;45330;-63
2022/05/10 02:48:20;;;;;;;;;27.00;25.75;;;;;20.56;48.69;101440.81;5097072;27;46139;-65
2022/05/10 02:50:45;;;;;;;;;29.00;20.25;;;;;20.58;48.37;101443.50;5097476;27;45597;-62
2022/05/10 02:53:10;;;;;;;;;23.50;21.25;;;;;20.55;48.49;101440.81;5098768;27;45510;-63
2022/05/10 02:56:01;;;;;;;;;22.50;22.00;;;;;20.52;48.88;101439.00;5097639;27;45333;-63
2022/05/10 02:58:29;;;;;;;;;25.25;22.50;;;;;20.49;48.67;101433.59;5101212;27;46133;-63
2022/05/10 03:01:04;;;;;;;;;31.75;26.50;;;;;20.52;48.75;101432.66;5116781;27;45454;-62
2022/05/10 03:03:30;;;;;;;;;31.00;26.00;;;;;20.47;48.99;101423.63;5116812;27;45515;-64
2022/05/10 03:05:56;;;;;;;;;25.25;22.50;;;;;20.51;48.85;101428.13;5112920;27;45581;-62
2022/05/10 03:08:22;;;;;;;;;23.00;20.25;;;;;20.15;48.84;101371.28;5116791;27;45417;-64
2022/05/10 03:10:48;;;;;;;;;23.50;20.25;;;;;20.50;48.96;101429.06;5116833;27;45593;-63
2022/05/10 03:13:13;;;;;;;;;24.75;23.75;;;;;20.51;48.83;101423.63;5116840;27;45298;-67
2022/05/10 03:15:39;;;;;;;;;24.25;23.00;;;;;20.49;48.94;101420.03;5116944;27;45404;-66
2022/05/10 03:18:05;;;;;;;;;25.25;23.50;;;;;20.52;48.74;101432.66;5122606;27;45581;-71
2022/05/10 03:20:30;;;;;;;;;27.50;23.00;;;;;20.37;48.57;101385.66;5106944;27;45524;-62
2022/05/10 03:22:55;;;;;;;;;25.00;23.25;;;;;20.55;48.39;101419.09;5116654;27;45390;-64
2022/05/10 03:25:22;;;;;;;;;25.50;20.50;;;;;20.49;48.14;101409.16;5116780;27;45533;-62
2022/05/10 03:27:48;;;;;;;;;23.00;22.50;;;;;20.08;48.26;101336.97;5116251;27;45453;-61
2022/05/10 03:30:14;;;;;;;;;25.50;24.25;;;;;20.47;48.25;101400.09;5116330;27;45323;-62
2022/05/10 03:32:40;;;;;;;;;31.75;27.25;;;;;20.48;48.40;101401.91;5116219;27;45363;-67
2022/05/10 03:35:05;;;;;;;;;24.75;22.00;;;;;20.49;48.02;101403.75;5079932;27;45261;-63
2022/05/10 03:37:31;;;;;;;;;22.75;22.75;;;;;20.45;48.33;101393.78;5114002;27;45354;-64
2022/05/10 03:39:57;;;;;;;;;20.00;18.75;;;;;20.05;48.20;101332.44;5116289;27;45415;-64
2022/05/10 03:42:23;;;;;;;;;24.00;22.00;;;;;20.23;48.20;101361.31;5116507;27;45434;-67
2022/05/10 03:44:52;;;;;;;;;22.50;20.50;;;;;20.48;48.48;101411.88;5116374;27;45410;-63
2022/05/10 03:47:26;;;;;;;;;23.25;21.25;;;;;20.37;48.05;101393.81;5109338;27;46468;-62
2022/05/10 03:49:51;;;;;;;;;24.00;21.50;;;;;20.39;48.36;101399.22;5117112;27;45617;-64
2022/05/10 03:52:17;;;;;;;;;24.00;22.75;;;;;20.09;48.53;101351.41;5118193;27;45277;-63
2022/05/10 03:54:43;;;;;;;;;22.25;19.00;;;;;20.27;48.01;101367.63;5111138;27;45477;-63
2022/05/10 03:57:09;;;;;;;;;17.25;17.00;;;;;20.21;48.21;101359.50;5110177;27;46075;-63
2022/05/10 03:59:37;;;;;;;;;24.25;21.75;;;;;20.45;48.24;101399.22;5103447;27;45440;-66
2022/05/10 04:02:03;;;;;;;;;25.75;22.50;;;;;20.42;48.18;101391.97;5098743;27;45458;-63
2022/05/10 04:04:28;;;;;;;;;25.00;19.50;;;;;20.40;48.20;101392.91;5109349;27;46148;-64
2022/05/10 04:06:53;;;;;;;;;21.50;20.75;;;;;20.36;48.08;101397.44;5115469;27;54452;-63
2022/05/10 04:09:19;;;;;;;;;20.75;19.50;;;;;20.34;48.00;101387.50;5115820;27;45401;-65
2022/05/10 04:11:45;;;;;;;;;28.75;21.00;;;;;20.34;47.93;101385.72;5116322;27;45341;-64
2022/05/10 04:14:11;;;;;;;;;21.50;20.50;;;;;20.40;47.99;101393.81;5116625;27;45452;-63
2022/05/10 04:16:37;;;;;;;;;25.00;23.50;;;;;20.39;47.90;101389.31;5113023;27;46197;-63
2022/05/10 04:19:02;;;;;;;;;24.75;23.50;;;;;20.37;47.60;101393.81;5109942;27;45451;-63
2022/05/10 04:21:28;;;;;;;;;19.25;19.25;;;;;20.36;47.66;101397.44;5114097;27;45594;-64
2022/05/10 04:23:53;;;;;;;;;21.50;20.00;;;;;20.35;47.95;101390.19;5096321;27;45318;-62
2022/05/10 04:26:19;;;;;;;;;24.75;21.00;;;;;20.15;47.70;101363.16;5102056;27;57489;-68
2022/05/10 04:28:45;;;;;;;;;25.75;22.75;;;;;20.25;47.80;101373.06;5102484;27;45562;-66
2022/05/10 04:31:11;;;;;;;;;23.00;23.00;;;;;20.34;47.83;101385.72;5099579;27;45293;-65
2022/05/10 04:33:37;;;;;;;;;21.75;20.50;;;;;20.44;47.66;101386.53;5097861;27;45428;-63
2022/05/10 04:36:02;;;;;;;;;22.50;20.00;;;;;20.33;47.78;101370.31;5060123;27;47447;-64
2022/05/10 04:38:28;;;;;;;;;28.25;24.75;;;;;20.38;47.62;101373.91;5095399;27;45449;-63
2022/05/10 04:43:38;;;;;;;;;26.75;22.50;;;;;20.46;47.91;101392.88;5109567;27;45408;-63
2022/05/10 04:46:04;;;;;;;;;23.75;21.00;;;;;20.47;47.73;101391.97;5112075;27;45500;-66
2022/05/10 04:48:29;;;;;;;;;23.75;21.75;;;;;20.29;47.71;101359.47;5115290;27;45631;-63
2022/05/10 04:50:55;;;;;;;;;22.50;20.50;;;;;20.49;47.95;101387.44;5122346;27;45384;-65
2022/05/10 04:53:21;;;;;;;;;25.00;23.00;;;;;20.52;47.92;101386.53;5123432;27;45282;-64
2022/05/10 04:55:48;;;;;;;;;21.25;19.75;;;;;20.46;47.39;101382.03;5119061;27;45563;-63
2022/05/10 04:58:14;;;;;;;;;23.50;19.50;;;;;20.56;47.90;101394.66;5114677;27;45549;-62
2022/05/10 05:00:40;;;;;;;;;22.75;21.50;;;;;20.51;47.61;101384.69;5109501;27;45725;-65
2022/05/10 05:03:05;;;;;;;;;23.50;21.25;;;;;20.55;47.17;101391.94;5096455;27;45461;-63
2022/05/10 05:05:30;;;;;;;;;23.25;22.00;;;;;20.56;47.10;101407.34;5097137;27;52873;-68
2022/05/10 05:07:56;;;;;;;;;22.00;20.25;;;;;20.41;46.54;101376.63;5123440;27;45084;-63
2022/05/10 05:10:21;;;;;;;;;22.25;21.50;;;;;20.25;46.35;101342.31;5113473;27;44966;-62
2022/05/10 05:12:46;;;;;;;;;22.75;22.00;;;;;20.58;46.12;101397.34;5115457;27;45254;-63
2022/05/10 05:15:13;;;;;;;;;15.50;15.50;;;;;20.59;45.78;101399.13;5130236;27;45031;-62
2022/05/10 05:17:38;;;;;;;;;20.00;18.75;;;;;20.60;45.98;101400.97;5098099;27;45008;-69
2022/05/10 05:20:05;;;;;;;;;18.25;17.00;;;;;20.59;45.96;101397.34;5116298;27;45143;-63
2022/05/10 05:22:30;;;;;;;;;21.50;19.00;;;;;20.63;46.02;101403.69;5113387;27;45124;-65
2022/05/10 05:24:56;;;;;;;;;24.00;22.75;;;;;20.56;45.91;101397.38;5112974;27;45644;-64
2022/05/10 05:27:21;;;;;;;;;21.00;19.25;;;;;20.37;46.00;101360.34;5112997;27;45010;-65
2022/05/10 05:29:47;;;;;;;;;24.00;21.25;;;;;20.61;46.08;101408.22;5113303;27;45229;-62
2022/05/10 05:32:15;;;;;;;;;18.50;18.50;;;;;20.56;45.88;101399.19;5129101;27;45188;-64
2022/05/10 05:34:40;;;;;;;;;21.50;19.00;;;;;20.44;46.20;101375.69;5133239;27;45173;-62
2022/05/10 05:39:49;;;;;;;;;22.25;19.75;;;;;20.55;46.11;101403.69;5116083;27;44950;-64
2022/05/10 05:42:15;;;;;;;;;24.00;23.00;;;;;20.51;46.29;101392.84;5113247;27;45094;-62
2022/05/10 05:44:41;;;;;;;;;20.50;18.50;;;;;20.60;45.72;101399.13;5113140;27;45167;-64
2022/05/10 05:47:06;;;;;;;;;24.25;22.25;;;;;20.69;46.02;101406.41;5112908;27;44971;-63
2022/05/10 05:49:31;;;;;;;;;21.25;19.00;;;;;20.54;45.76;101390.13;5113082;27;45579;-64
2022/05/10 05:52:01;;;;;;;;;19.75;16.75;;;;;20.53;45.78;101396.47;5125176;27;44961;-64
2022/05/10 05:54:27;;;;;;;;;19.75;18.00;;;;;20.65;45.36;101410.00;5128995;27;45183;-63
2022/05/10 05:57:04;;;;;;;;;21.00;18.50;;;;;20.53;45.28;101391.94;5129543;27;45152;-62
2022/05/10 05:59:30;;;;;;;;;22.75;21.25;;;;;20.70;45.45;101410.91;5124380;27;45288;-65
2022/05/10 06:01:56;;;;;;;;;25.25;18.75;;;;;20.72;45.27;101406.38;5106472;27;45327;-64
2022/05/10 06:04:21;;;;;;;;;18.50;16.25;;;;;20.72;45.03;101419.03;5092944;27;46257;-63
2022/05/10 06:06:47;;;;;;;;;38.00;32.25;;;;;20.72;45.25;101417.25;5114543;27;45618;-63
2022/05/10 06:09:12;;;;;;;;;20.00;20.00;;;;;20.76;45.00;101410.88;5116945;27;45546;-64
2022/05/10 06:11:38;;;;;;;;;28.50;23.75;;;;;20.58;45.11;101372.94;5114244;27;45449;-61
2022/05/10 06:14:04;;;;;;;;;19.75;19.00;;;;;20.80;45.37;101409.97;5113767;27;45893;-64
2022/05/10 06:16:29;;;;;;;;;18.00;16.50;;;;;20.77;44.96;101393.69;5095992;27;45421;-61
2022/05/10 06:18:54;;;;;;;;;18.00;17.75;;;;;20.77;44.85;101392.75;5107950;27;45600;-64
2022/05/10 06:21:20;;;;;;;;;21.00;21.00;;;;;20.66;44.74;101371.09;5093401;27;45313;-64
2022/05/10 06:23:46;;;;;;;;;22.00;21.75;;;;;20.82;44.67;101395.44;5081199;27;45492;-63
2022/05/10 06:26:11;;;;;;;;;21.00;18.50;;;;;20.82;44.59;101385.47;5086863;27;45457;-63
2022/05/10 06:28:37;;;;;;;;;27.75;20.75;;;;;20.99;44.79;101408.03;5087465;27;45699;-67
2022/05/10 06:31:06;;;;;;;;;24.50;18.75;;;;;20.98;44.38;101398.06;5077477;27;45339;-65
2022/05/10 06:33:32;;;;;;;;;22.50;19.75;;;;;20.97;44.54;101400.81;5075840;27;45628;-64
2022/05/10 06:35:57;;;;;;;;;26.75;25.00;;;;;21.06;44.49;101397.13;5075869;27;45531;-65
2022/05/10 06:38:27;;;;;;;;;22.25;20.75;;;;;21.01;44.33;101380.84;5075810;27;45725;-64
2022/05/10 06:40:56;;;;;;;;;21.75;20.25;;;;;21.25;44.11;101401.53;5076197;27;45592;-65
2022/05/10 06:43:22;;;;;;;;;26.00;23.50;;;;;21.29;44.08;101402.41;5075133;27;46991;-63
2022/05/10 06:45:48;;;;;;;;;31.75;30.50;;;;;21.28;44.06;101393.34;5075783;27;45449;-64
2022/05/10 06:48:15;;;;;;;;;22.50;20.75;;;;;21.36;43.92;101404.13;5076342;27;45450;-65
2022/05/10 06:50:42;;;;;;;;;25.00;22.50;;;;;21.30;43.83;101380.66;5076743;27;45440;-62
2022/05/10 06:53:08;;;;;;;;;21.00;17.50;;;;;21.46;43.72;101396.81;5076135;27;45997;-65
2022/05/10 06:55:35;;;;;;;;;22.75;19.50;;;;;21.32;43.72;101364.31;5076357;27;45395;-65
2022/05/10 06:58:01;;;;;;;;;22.00;19.75;;;;;21.61;43.68;101395.81;5076510;27;45405;-62
2022/05/10 07:00:27;;;;;;;;;23.25;22.25;;;;;21.61;43.66;101390.38;5071997;27;45603;-65
2022/05/10 07:02:53;;;;;;;;;26.00;24.50;;;;;21.68;43.39;101395.75;5076415;27;45514;-64
2022/05/10 07:05:19;;;;;;;;;24.75;21.00;;;;;21.72;43.05;101394.78;5076168;27;45268;-65
2022/05/10 07:07:45;;;;;;;;;27.00;24.50;;;;;21.71;43.45;101384.84;5075968;27;45418;-63
2022/05/10 07:10:12;;;;;;;;;19.00;17.00;;;;;21.72;42.92;101370.31;5076397;27;45644;-63
2022/05/10 07:12:40;;;;;;;;;22.25;22.25;;;;;21.50;43.11;101322.53;5075744;27;45623;-63
2022/05/10 07:15:08;;;;;;;;;20.75;17.75;;;;;21.97;42.82;101390.94;5076295;27;45424;-64
2022/05/10 07:17:33;;;;;;;;;23.00;19.25;;;;;21.92;42.51;101371.03;5075791;27;45381;-64
2022/05/10 07:19:59;;;;;;;;;21.25;19.00;;;;;21.92;42.62;101368.31;5082636;27;45358;-66
2022/05/10 07:22:25;;;;;;;;;29.75;28.75;;;;;22.08;42.47;101389.00;5096218;27;46053;-66
2022/05/10 07:24:51;;;;;;;;;22.50;21.00;;;;;21.97;42.50;101358.28;5095927;27;45358;-64
2022/05/10 07:27:16;;;;;;;;;21.00;19.00;;;;;22.19;42.20;101381.63;5095701;27;45370;-65
2022/05/10 07:29:43;;;;;;;;;28.00;24.75;;;;;22.27;42.28;101389.69;5096287;27;45455;-63
2022/05/10 07:32:09;;;;;;;;;19.50;19.25;;;;;22.31;42.33;101377.00;5096254;27;45471;-63
2022/05/10 07:34:34;;;;;;;;;20.25;20.25;;;;;22.36;42.09;101380.56;5095796;27;45369;-65
2022/05/10 07:37:00;;;;;;;;;16.75;15.00;;;;;22.35;41.99;101370.56;5096255;27;45348;-62
2022/05/10 07:39:26;;;;;;;;;27.50;24.00;;;;;22.48;41.81;101385.84;5096439;27;45314;-64
2022/05/10 07:41:54;;;;;;;;;21.50;21.50;;;;;22.48;41.71;101377.66;5096046;27;45480;-65
2022/05/10 07:44:21;;;;;;;;;27.25;20.25;;;;;22.51;41.65;101379.47;5095887;27;45362;-63
2022/05/10 07:46:46;;;;;;;;;21.75;20.00;;;;;22.55;41.64;101376.66;5095847;27;46001;-62
2022/05/10 07:49:11;;;;;;;;;18.00;17.25;;;;;22.56;41.52;101381.19;5096227;27;45366;-67
2022/05/10 07:51:36;;;;;;;;;28.50;25.00;;;;;22.37;41.65;101347.88;5095900;27;45541;-64
2022/05/10 07:54:02;;;;;;;;;20.00;19.50;;;;;22.55;41.56;101382.09;5095691;27;45567;-65
2022/05/10 07:56:28;;;;;;;;;23.50;18.25;;;;;22.54;41.58;101383.03;5095469;27;45465;-64
2022/05/10 07:58:55;;;;;;;;;17.25;14.25;;;;;22.36;41.53;101350.59;5095571;27;45535;-67
2022/05/10 08:01:20;;;;;;;;;19.00;16.67;;;;;22.59;41.71;101377.53;5095798;27;46340;-66
2022/05/10 08:03:46;;;;;;;;;21.00;18.00;;;;;22.65;41.53;101374.72;5095938;27;45389;-66
2022/05/10 08:06:11;;;;;;;;;19.75;18.25;;;;;22.77;41.16;101376.38;5096110;27;45312;-68
2022/05/10 08:08:36;;;;;;;;;23.00;22.00;;;;;22.48;41.03;101315.03;5095971;27;45386;-65
2022/05/10 08:11:03;;;;;;;;;24.25;17.25;;;;;22.90;40.92;101364.38;5095464;27;46043;-73
2022/05/10 08:13:31;;;;;;;;;19.00;18.50;;;;;22.99;40.66;101361.50;5095393;27;45396;-66
2022/05/10 08:15:57;;;;;;;;;16.00;15.75;;;;;23.17;40.37;101382.16;5095582;27;45501;-69
2022/05/10 08:18:25;;;;;;;;;19.00;17.25;;;;;23.21;40.26;101383.00;5095846;27;45630;-66
2022/05/10 08:20:52;;;;;;;;;17.25;17.25;;;;;23.23;40.45;101382.97;5095039;27;45948;-67
2022/05/10 08:23:22;;;;;;;;;21.25;17.50;;;;;23.11;39.87;101363.16;5095442;27;45328;-65
2022/05/10 08:25:50;;;;;;;;;20.00;19.25;;;;;23.19;40.36;101383.03;5095183;27;45343;-67
2022/05/10 08:28:16;;;;;;;;;21.75;17.25;;;;;23.29;40.10;101386.50;5095600;27;45468;-66
2022/05/10 08:30:43;;;;;;;;;16.75;15.75;;;;;22.88;40.02;101308.09;5094989;27;45580;-64
2022/05/10 08:33:10;;;;;;;;;19.75;17.75;;;;;23.33;40.03;101387.38;5095190;27;45422;-70
2022/05/10 08:35:37;;;;;;;;;21.75;19.75;;;;;23.34;40.12;101376.41;5094844;27;45436;-67
2022/05/10 08:38:02;;;;;;;;;15.00;14.33;;;;;23.31;39.57;101362.88;5095247;27;45416;-66
2022/05/10 08:40:32;;;;;;;;;18.00;14.67;;;;;22.47;39.08;101211.59;5094918;27;46446;-69
2022/05/10 08:43:07;;;;;;;;;20.00;15.33;;;;;23.52;39.41;101369.75;5095825;27;45592;-65
2022/05/10 08:45:40;;;;;;;;;20.33;13.67;;;;;23.58;39.17;101368.75;5093335;27;45429;-64
2022/05/10 08:48:05;;;;;;;;;16.67;14.33;;;;;23.75;39.14;101371.19;5094911;27;45429;-70
2022/05/10 08:50:31;;;;;;;;;21.00;15.33;;;;;23.83;39.25;101354.72;5094691;27;45413;-65
2022/05/10 08:52:56;;;;;;;;;14.33;12.67;;;;;23.97;38.44;101365.34;5094720;27;45591;-66
2022/05/10 08:55:27;;;;;;;;;15.33;15.33;;;;;23.88;38.61;101336.41;5095190;27;45274;-62
2022/05/10 08:58:04;;;;;;;;;20.33;18.00;;;;;24.13;38.44;101360.50;5095403;27;45479;-64
2022/05/10 09:00:46;;;;;;;;;15.00;14.00;;;;;24.25;37.34;101368.41;5094975;27;45642;-66
2022/05/10 09:03:40;;;;;;;;;14.00;13.33;;;;;23.95;36.40;101297.13;5094704;27;45365;-66
2022/05/10 09:06:20;;;;;;;;;17.67;11.00;;;;;24.57;36.58;101372.34;5110497;27;45657;-66
2022/05/10 09:09:05;;;;;;;;;13.33;12.33;;;;;24.68;35.87;101364.78;5114161;27;45333;-64
2022/05/10 09:11:45;;;;;;;;;18.33;13.67;;;;;24.80;36.08;101364.53;5114273;27;45356;-66
2022/05/10 09:14:13;;;;;;;;;17.67;15.33;;;;;24.84;35.38;101344.38;5114065;27;45445;-63
2022/05/10 09:16:39;;;;;;;;;14.67;14.67;;;;;25.09;35.24;101360.19;5114182;27;45463;-70
2022/05/10 09:19:06;;;;;;;;;15.33;14.67;;;;;25.27;34.70;101355.25;5114396;27;45547;-71
2022/05/10 09:21:54;;;;;;;;;10.00;10.00;;;;;25.43;34.69;101353.94;5114040;27;46206;-65
2022/05/10 09:24:25;;;;;;;;;9.67;9.00;;;;;25.57;34.50;101353.56;5114176;27;45475;-65
2022/05/10 09:26:53;;;;;;;;;15.33;14.00;;;;;25.64;34.22;101352.47;5114156;27;45343;-64
2022/05/10 09:29:44;;;;;;;;;16.00;15.33;;;;;25.62;34.13;101329.69;5114732;27;45608;-65
2022/05/10 09:35:24;;;;;;;;;14.33;12.00;;;;;25.72;33.63;101339.47;5114404;27;45272;-71
2022/05/10 09:37:56;;;;;;;;;14.33;11.67;;;;;25.56;34.01;101303.41;5114281;27;45577;-63
2022/05/10 09:40:34;;;;;;;;;14.00;13.00;;;;;25.78;34.02;101341.13;5114417;27;45358;-71
2022/05/10 09:43:15;;;;;;;;;12.67;11.67;;;;;25.80;34.12;101341.97;5108719;27;46036;-63
2022/05/10 09:45:41;;;;;;;;;14.67;13.67;;;;;25.62;34.11;101318.75;5113779;27;45541;-66
2022/05/10 09:48:09;;;;;;;;;13.33;11.67;;;;;25.83;33.82;101339.16;5113823;27;45579;-68
2022/05/10 09:50:42;;;;;;;;;13.67;13.00;;;;;25.87;33.83;101332.69;5113887;27;45423;-68
2022/05/10 09:53:07;;;;;;;;;15.67;14.67;;;;;25.91;33.59;101338.97;5114523;27;46138;-64
2022/05/10 09:55:34;;;;;;;;;14.33;14.33;;;;;25.55;33.54;101260.56;5117221;27;45377;-63
2022/05/10 09:58:19;;;;;;;;;14.33;13.67;;;;;25.96;33.65;101328.81;5117492;27;45403;-63
2022/05/10 10:00:52;;;;;;;;;15.33;14.67;;;;;25.57;33.26;101268.72;5117322;27;45553;-67
2022/05/10 10:03:32;;;;;;;;;14.00;14.00;;;;;25.97;33.63;101326.97;5117072;27;45368;-65
2022/05/10 10:06:21;;;;;;;;;18.33;16.00;;;;;25.90;33.37;101310.69;5117192;27;45446;-63
2022/05/10 10:08:50;;;;;;;;;15.00;13.67;;;;;26.07;33.37;101329.41;5116974;27;45453;-63
2022/05/10 10:11:21;;;;;;;;;13.00;11.67;;;;;26.24;32.89;101322.53;5117407;27;45574;-68
2022/05/10 10:13:50;;;;;;;;;15.00;12.00;;;;;26.15;32.45;101295.41;5117288;27;45473;-65
2022/05/10 10:16:24;;;;;;;;;17.33;15.00;;;;;26.33;32.57;101329.56;5116932;27;45299;-65
2022/05/10 10:18:53;;;;;;;;;10.67;10.67;;;;;26.27;32.71;101319.72;5117025;27;45487;-65
2022/05/10 10:21:27;;;;;;;;;13.00;11.67;;;;;26.16;32.40;101295.34;5111968;27;45714;-63
2022/05/10 10:23:58;;;;;;;;;11.67;10.67;;;;;26.29;32.44;101334.25;5104083;27;45360;-64
2022/05/10 10:26:32;;;;;;;;;12.67;11.00;;;;;26.33;32.36;101330.44;5097026;27;45504;-66
2022/05/10 10:29:13;;;;;;;;;14.33;10.00;;;;;26.37;32.01;101325.81;5111547;27;45738;-64
2022/05/10 10:31:44;;;;;;;;;21.00;21.00;;;;;26.43;32.27;101328.34;5116863;27;45317;-63
2022/05/10 10:34:26;;;;;;;;;19.33;13.00;;;;;26.29;32.09;101294.03;5116622;27;46439;-65
2022/05/10 10:37:04;;;;;;;;;13.67;12.33;;;;;26.51;32.13;101328.13;5116854;27;45478;-64
2022/05/10 10:39:39;;;;;;;;;12.00;11.00;;;;;26.42;31.60;101304.66;5116555;27;45407;-63
2022/05/10 10:42:20;;;;;;;;;14.33;13.00;;;;;26.52;32.04;101316.22;5116685;27;45428;-66
2022/05/10 10:44:55;;;;;;;;;14.00;14.00;;;;;26.35;31.66;101279.28;5102750;27;45534;-68
2022/05/10 10:47:38;;;;;;;;;16.67;13.00;;;;;26.58;31.83;101324.22;5116239;27;45508;-65
2022/05/10 10:50:26;;;;;;;;;11.00;10.33;;;;;26.57;31.75;101322.44;5116757;27;45656;-64
2022/05/10 10:52:54;;;;;;;;;12.67;12.67;;;;;26.59;31.76;101332.41;5116449;27;45418;-62
2022/05/10 10:55:22;;;;;;;;;12.67;11.67;;;;;26.42;31.48;101301.91;5116137;27;45488;-63
2022/05/10 10:58:17;;;;;;;;;18.50;12.50;;;;;26.59;31.46;101310.47;5116334;27;45307;-71
2022/05/10 11:00:54;;;;;;;;;14.00;12.33;;;;;26.39;30.93;101267.25;5058656;27;45578;-63
2022/05/10 11:03:28;;;;;;;;;12.67;12.33;;;;;26.68;31.54;101312.09;5096212;27;45508;-63
2022/05/10 11:06:13;;;;;;;;;15.00;12.67;;;;;26.73;31.34;101322.88;5109629;27;47179;-65
2022/05/10 11:09:12;;;;;;;;;18.00;15.67;;;;;26.77;31.21;101313.63;5116076;27;45286;-66
2022/05/10 11:12:08;;;;;;;;;12.67;12.00;;;;;26.79;31.17;101292.53;5097855;27;45443;-62
2022/05/10 11:14:42;;;;;;;;;8.00;8.00;;;;;26.88;30.92;101297.72;5114022;27;45370;-65
2022/05/10 11:17:58;;;;;;;;;10.33;10.00;;;;;26.92;30.71;101285.69;5116068;27;46878;-66
2022/05/10 11:20:37;;;;;;;;;10.00;10.00;;;;;26.95;31.09;101285.59;5001775;28;45646;-64
2022/05/10 11:23:06;;;;;;;;;13.00;13.00;;;;;26.82;30.69;101259.53;5078636;27;45307;-69
2022/05/10 11:25:31;;;;;;;;;14.00;13.67;;;;;26.98;30.92;101263.56;5095556;27;45439;-63
2022/05/10 11:28:15;;;;;;;;;11.33;11.33;;;;;27.12;30.51;101279.53;5095720;27;45503;-70
2022/05/10 11:30:58;;;;;;;;;9.33;9.00;;;;;27.06;30.87;101271.53;5095304;27;45288;-63
2022/05/10 11:33:29;;;;;;;;;12.00;10.33;;;;;27.14;30.67;101271.25;5095540;27;45429;-68
2022/05/10 11:36:18;;;;;;;;;14.33;12.00;;;;;27.18;30.29;101262.88;5095296;27;45656;-66